createdAt,value
2023-12-01T00:00:14.964Z,1.007
2023-12-01T00:01:15.770Z,0.962
2023-12-01T00:02:15.752Z,0.975
2023-12-01T00:03:15.103Z,0.999
2023-12-01T00:04:16.116Z,1.039
2023-12-01T00:05:14.927Z,0.988
2023-12-01T00:06:15.613Z,0.983
2023-12-01T00:07:15.171Z,1.010
2023-12-01T00:08:15.717Z,0.988
2023-12-01T00:09:15.252Z,1.018
2023-12-01T00:10:15.985Z,1.010
2023-12-01T00:12:15.997Z,1.010
2023-12-01T00:13:15.680Z,1.004
2023-12-01T00:16:15.716Z,1.114
2023-12-01T00:17:15.432Z,1.085
2023-12-01T00:18:15.174Z,1.087
2023-12-01T00:19:16.276Z,1.125
2023-12-01T00:20:15.587Z,1.141
2023-12-01T00:21:15.102Z,1.127
2023-12-01T00:22:15.757Z,1.087
2023-12-01T00:23:15.792Z,1.106
2023-12-01T00:24:15.827Z,1.119
2023-12-01T00:25:16.030Z,1.122
2023-12-01T00:27:16.141Z,1.138
2023-12-01T00:28:16.183Z,1.026
2023-12-01T00:30:15.508Z,1.042
2023-12-01T00:31:15.166Z,1.036
2023-12-01T00:32:15.957Z,1.074
2023-12-01T00:33:15.954Z,1.069
2023-12-01T00:34:15.240Z,1.036
2023-12-01T00:35:15.599Z,1.061
2023-12-01T00:36:15.671Z,1.039
2023-12-01T00:37:15.777Z,0.994
2023-12-01T00:38:15.830Z,1.039
2023-12-01T00:39:15.855Z,1.055
2023-12-01T00:40:16.135Z,1.018
2023-12-01T00:41:15.085Z,1.058
2023-12-01T00:42:15.679Z,1.077
2023-12-01T00:43:15.908Z,1.101
2023-12-01T00:44:15.832Z,1.061
2023-12-01T00:45:15.342Z,1.015
2023-12-01T00:46:15.981Z,1.015
2023-12-01T00:47:15.790Z,1.052
2023-12-01T00:49:16.099Z,1.028
2023-12-01T00:52:15.856Z,1.015
2023-12-01T00:53:15.909Z,1.036
2023-12-01T00:54:15.955Z,1.036
2023-12-01T00:55:16.115Z,1.007
2023-12-01T00:56:15.624Z,1.018
2023-12-01T00:57:15.050Z,0.983
2023-12-01T00:58:15.731Z,0.986
2023-12-01T00:59:15.253Z,0.975
2023-12-01T01:00:15.998Z,0.964
2023-12-01T01:01:15.808Z,0.967
2023-12-01T01:02:15.645Z,0.954
2023-12-01T01:03:15.761Z,0.935
2023-12-01T01:04:18.810Z,0.975
2023-12-01T01:05:15.744Z,0.951
2023-12-01T01:06:15.211Z,0.946
2023-12-01T01:07:15.889Z,0.940
2023-12-01T01:08:16.028Z,0.914
2023-12-01T01:09:15.556Z,0.895
2023-12-01T01:11:15.742Z,0.866
2023-12-01T01:12:15.364Z,0.908
2023-12-01T01:13:16.058Z,0.898
2023-12-01T01:15:15.418Z,0.938
2023-12-01T01:16:15.722Z,0.900
2023-12-01T01:17:15.711Z,0.860
2023-12-01T01:18:15.732Z,0.842
2023-12-01T01:19:16.561Z,0.863
2023-12-01T01:20:15.850Z,0.874
2023-12-01T01:21:15.455Z,0.866
2023-12-01T01:24:15.272Z,0.847
2023-12-01T01:25:16.016Z,0.844
2023-12-01T01:26:16.245Z,0.839
2023-12-01T01:27:15.793Z,0.882
2023-12-01T01:30:15.036Z,0.898
2023-12-01T01:31:15.876Z,0.898
2023-12-01T01:32:15.700Z,0.898
2023-12-01T01:33:15.816Z,0.834
2023-12-01T01:34:15.816Z,0.818
2023-12-01T01:35:15.969Z,0.820
2023-12-01T01:36:15.514Z,0.868
2023-12-01T01:37:15.223Z,0.807
2023-12-01T01:38:15.780Z,0.820
2023-12-01T01:39:15.460Z,0.809
2023-12-01T01:40:15.630Z,0.842
2023-12-01T01:42:14.972Z,0.863
2023-12-01T01:43:15.722Z,0.860
2023-12-01T01:44:15.525Z,0.906
2023-12-01T01:45:15.569Z,0.887
2023-12-01T01:46:16.026Z,0.892
2023-12-01T01:47:14.985Z,0.871
2023-12-01T01:49:15.955Z,0.874
2023-12-01T01:50:15.992Z,0.903
2023-12-01T01:51:16.052Z,0.924
2023-12-01T01:52:15.652Z,0.898
2023-12-01T01:55:15.633Z,0.890
2023-12-01T01:56:15.206Z,0.938
2023-12-01T01:57:15.739Z,0.935
2023-12-01T01:58:15.552Z,0.927
2023-12-01T01:59:15.589Z,0.948
2023-12-01T02:00:15.616Z,0.959
2023-12-01T02:01:15.910Z,0.930
2023-12-01T02:02:16.461Z,0.986
2023-12-01T02:03:15.964Z,0.962
2023-12-01T02:04:16.079Z,0.916
2023-12-01T02:05:16.064Z,0.940
2023-12-01T02:06:15.541Z,0.946
2023-12-01T02:08:15.697Z,0.924
2023-12-01T02:09:15.291Z,0.975
2023-12-01T02:10:16.030Z,0.935
2023-12-01T02:11:15.526Z,0.914
2023-12-01T02:12:15.012Z,0.914
2023-12-01T02:13:15.773Z,0.940
2023-12-01T02:14:15.752Z,0.908
2023-12-01T02:15:15.267Z,0.868
2023-12-01T02:16:16.102Z,0.927
2023-12-01T02:17:15.995Z,0.887
2023-12-01T02:18:16.060Z,0.884
2023-12-01T02:19:15.932Z,0.868
2023-12-01T02:20:16.591Z,0.927
2023-12-01T02:21:16.258Z,0.914
2023-12-01T02:22:16.396Z,0.884
2023-12-01T02:23:15.875Z,0.892
2023-12-01T02:24:15.434Z,0.906
2023-12-01T02:25:15.179Z,0.935
2023-12-01T02:26:15.839Z,0.930
2023-12-01T02:27:15.593Z,0.935
2023-12-01T02:28:15.840Z,0.924
2023-12-01T02:29:17.556Z,0.922
2023-12-01T02:30:15.204Z,0.903
2023-12-01T02:31:16.124Z,0.898
2023-12-01T02:33:15.979Z,0.887
2023-12-01T02:34:15.553Z,0.876
2023-12-01T02:35:15.221Z,0.938
2023-12-01T02:36:15.731Z,0.895
2023-12-01T02:37:15.632Z,0.898
2023-12-01T02:38:15.349Z,0.922
2023-12-01T02:39:15.432Z,0.986
2023-12-01T02:40:15.266Z,0.922
2023-12-01T02:41:16.325Z,0.946
2023-12-01T02:42:15.895Z,0.943
2023-12-01T02:43:15.729Z,0.919
2023-12-01T02:44:15.924Z,0.906
2023-12-01T02:46:16.249Z,0.898
2023-12-01T02:47:15.147Z,0.930
2023-12-01T02:48:15.738Z,0.935
2023-12-01T02:49:15.367Z,0.906
2023-12-01T02:50:14.962Z,0.908
2023-12-01T02:51:15.524Z,0.908
2023-12-01T02:52:15.277Z,0.898
2023-12-01T02:53:15.884Z,0.935
2023-12-01T02:54:15.416Z,0.930
2023-12-01T02:55:15.033Z,0.900
2023-12-01T02:56:15.858Z,0.938
2023-12-01T02:57:15.708Z,0.887
2023-12-01T02:58:15.955Z,0.884
2023-12-01T03:01:15.727Z,0.935
2023-12-01T03:02:15.937Z,0.884
2023-12-01T03:03:15.640Z,0.882
2023-12-01T03:06:15.354Z,0.860
2023-12-01T03:07:16.553Z,0.876
2023-12-01T03:08:15.547Z,0.882
2023-12-01T03:09:15.164Z,0.884
2023-12-01T03:10:15.947Z,0.855
2023-12-01T03:11:15.701Z,0.834
2023-12-01T03:12:17.672Z,0.850
2023-12-01T03:13:16.004Z,0.828
2023-12-01T03:14:15.973Z,0.850
2023-12-01T03:15:19.935Z,0.847
2023-12-01T03:16:16.115Z,0.826
2023-12-01T03:19:15.343Z,0.879
2023-12-01T03:20:16.030Z,0.842
2023-12-01T03:21:16.354Z,0.828
2023-12-01T03:23:15.571Z,0.882
2023-12-01T03:24:15.180Z,0.890
2023-12-01T03:25:16.910Z,0.898
2023-12-01T03:26:15.770Z,0.871
2023-12-01T03:27:15.876Z,0.892
2023-12-01T03:28:16.393Z,0.871
2023-12-01T03:29:15.226Z,0.868
2023-12-01T03:30:15.780Z,0.807
2023-12-01T03:31:16.320Z,0.855
2023-12-01T03:32:15.197Z,0.887
2023-12-01T03:33:15.807Z,0.882
2023-12-01T03:34:15.550Z,0.914
2023-12-01T03:37:15.668Z,0.860
2023-12-01T03:39:15.687Z,0.964
2023-12-01T03:40:15.934Z,0.922
2023-12-01T03:41:15.997Z,0.914
2023-12-01T03:42:15.780Z,0.879
2023-12-01T03:43:16.034Z,0.892
2023-12-01T03:44:15.673Z,0.852
2023-12-01T03:46:15.640Z,0.844
2023-12-01T03:48:15.117Z,0.882
2023-12-01T03:49:15.987Z,0.852
2023-12-01T03:50:15.772Z,0.844
2023-12-01T03:51:15.760Z,0.860
2023-12-01T03:52:15.661Z,0.871
2023-12-01T03:53:15.752Z,0.882
2023-12-01T03:54:15.224Z,0.903
2023-12-01T03:55:16.314Z,0.895
2023-12-01T03:56:15.905Z,0.911
2023-12-01T03:57:15.949Z,0.903
2023-12-01T03:58:16.135Z,0.911
2023-12-01T03:59:15.822Z,0.916
2023-12-01T04:01:15.441Z,0.892
2023-12-01T04:02:15.586Z,0.874
2023-12-01T04:05:15.695Z,0.882
2023-12-01T04:06:15.604Z,0.866
2023-12-01T04:07:15.754Z,0.871
2023-12-01T04:08:16.125Z,0.860
2023-12-01T04:10:15.941Z,0.844
2023-12-01T04:11:16.374Z,0.871
2023-12-01T04:12:14.994Z,0.951
2023-12-01T04:13:16.151Z,0.935
2023-12-01T04:14:16.126Z,0.930
2023-12-01T04:15:15.767Z,0.938
2023-12-01T04:18:16.116Z,0.884
2023-12-01T04:19:15.907Z,0.858
2023-12-01T04:20:15.570Z,0.900
2023-12-01T04:21:15.692Z,0.908
2023-12-01T04:22:15.639Z,0.900
2023-12-01T04:23:15.736Z,0.866
2023-12-01T04:24:15.811Z,0.911
2023-12-01T04:25:16.031Z,0.903
2023-12-01T04:28:15.775Z,0.903
2023-12-01T04:29:15.273Z,0.927
2023-12-01T04:30:15.824Z,0.924
2023-12-01T04:31:20.838Z,0.940
2023-12-01T04:34:15.699Z,0.951
2023-12-01T04:35:15.585Z,0.948
2023-12-01T04:36:15.107Z,0.906
2023-12-01T04:37:16.036Z,0.930
2023-12-01T04:38:15.837Z,0.911
2023-12-01T04:39:15.909Z,0.884
2023-12-01T04:40:16.453Z,0.906
2023-12-01T04:41:16.017Z,0.898
2023-12-01T04:42:15.509Z,0.895
2023-12-01T04:44:15.867Z,0.911
2023-12-01T04:45:15.495Z,0.924
2023-12-01T04:46:15.489Z,0.914
2023-12-01T04:47:15.448Z,0.924
2023-12-01T04:48:15.787Z,0.898
2023-12-01T04:49:16.589Z,0.927
2023-12-01T04:50:15.189Z,0.892
2023-12-01T04:51:15.711Z,0.882
2023-12-01T04:52:15.930Z,0.871
2023-12-01T04:53:15.853Z,0.850
2023-12-01T04:54:15.411Z,0.834
2023-12-01T04:55:15.266Z,0.847
2023-12-01T04:56:14.896Z,0.842
2023-12-01T04:57:16.115Z,0.807
2023-12-01T04:58:15.818Z,0.836
2023-12-01T05:00:15.182Z,0.804
2023-12-01T05:01:15.924Z,0.764
2023-12-01T05:02:15.576Z,0.740
2023-12-01T05:03:15.890Z,0.769
2023-12-01T05:04:16.237Z,0.740
2023-12-01T05:05:15.859Z,0.743
2023-12-01T05:07:15.951Z,0.743
2023-12-01T05:08:15.915Z,0.759
2023-12-01T05:09:15.413Z,0.735
2023-12-01T05:10:16.128Z,0.759
2023-12-01T05:11:14.953Z,0.743
2023-12-01T05:12:16.205Z,0.759
2023-12-01T05:13:16.494Z,0.753
2023-12-01T05:14:15.204Z,0.743
2023-12-01T05:15:15.692Z,0.687
2023-12-01T05:16:15.531Z,0.703
2023-12-01T05:17:15.692Z,0.727
2023-12-01T05:18:15.761Z,0.708
2023-12-01T05:19:15.876Z,0.697
2023-12-01T05:20:15.748Z,0.687
2023-12-01T05:22:16.047Z,0.665
2023-12-01T05:23:16.849Z,0.668
2023-12-01T05:24:15.372Z,0.660
2023-12-01T05:25:15.265Z,0.641
2023-12-01T05:27:15.592Z,0.620
2023-12-01T05:28:15.698Z,0.631
2023-12-01T05:30:14.917Z,0.615
2023-12-01T05:31:15.792Z,0.625
2023-12-01T05:32:15.750Z,0.572
2023-12-01T05:33:15.733Z,0.641
2023-12-01T05:34:16.733Z,0.572
2023-12-01T05:35:15.829Z,0.585
2023-12-01T05:36:15.924Z,0.591
2023-12-01T05:37:16.117Z,0.550
2023-12-01T05:39:15.519Z,0.532
2023-12-01T05:40:15.353Z,0.569
2023-12-01T05:41:15.397Z,0.566
2023-12-01T05:42:15.837Z,0.500
2023-12-01T05:43:15.774Z,0.508
2023-12-01T05:44:15.590Z,0.505
2023-12-01T05:45:15.594Z,0.465
2023-12-01T05:46:15.744Z,0.481
2023-12-01T05:47:15.702Z,0.438
2023-12-01T05:48:16.518Z,0.433
2023-12-01T05:49:15.920Z,0.420
2023-12-01T05:50:15.904Z,0.422
2023-12-01T05:51:15.991Z,0.444
2023-12-01T05:52:16.160Z,0.433
2023-12-01T05:53:15.772Z,0.417
2023-12-01T05:55:17.084Z,0.409
2023-12-01T05:56:14.902Z,0.414
2023-12-01T05:57:15.394Z,0.390
2023-12-01T05:58:15.655Z,0.414
2023-12-01T05:59:15.521Z,0.398
2023-12-01T06:00:15.625Z,0.404
2023-12-01T06:01:15.778Z,0.380
2023-12-01T06:02:16.478Z,0.393
2023-12-01T06:04:16.089Z,0.334
2023-12-01T06:05:15.982Z,0.332
2023-12-01T06:06:16.010Z,0.390
2023-12-01T06:07:15.703Z,0.358
2023-12-01T06:08:15.899Z,0.337
2023-12-01T06:11:15.667Z,0.337
2023-12-01T06:12:15.448Z,0.310
2023-12-01T06:13:15.628Z,0.315
2023-12-01T06:14:15.290Z,0.310
2023-12-01T06:15:15.785Z,0.302
2023-12-01T06:16:15.874Z,0.307
2023-12-01T06:17:15.833Z,0.283
2023-12-01T06:18:15.528Z,0.313
2023-12-01T06:19:17.026Z,0.291
2023-12-01T06:20:15.563Z,0.291
2023-12-01T06:21:15.649Z,0.283
2023-12-01T06:22:15.468Z,0.307
2023-12-01T06:25:15.517Z,0.267
2023-12-01T06:26:15.480Z,0.251
2023-12-01T06:27:14.995Z,0.251
2023-12-01T06:28:16.599Z,0.299
2023-12-01T06:30:15.808Z,0.257
2023-12-01T06:31:17.745Z,0.283
2023-12-01T06:32:15.960Z,0.305
2023-12-01T06:33:15.965Z,0.305
2023-12-01T06:34:16.130Z,0.289
2023-12-01T06:35:15.742Z,0.281
2023-12-01T06:38:15.899Z,0.265
2023-12-01T06:40:16.669Z,0.254
2023-12-01T06:41:15.338Z,0.305
2023-12-01T06:42:15.808Z,0.297
2023-12-01T06:43:16.394Z,0.278
2023-12-01T06:44:14.991Z,0.265
2023-12-01T06:45:15.814Z,0.299
2023-12-01T06:46:15.482Z,0.283
2023-12-01T06:47:15.493Z,0.289
2023-12-01T06:48:15.524Z,0.299
2023-12-01T06:50:15.074Z,0.283
2023-12-01T06:51:15.599Z,0.305
2023-12-01T06:52:15.355Z,0.262
2023-12-01T06:53:15.680Z,0.310
2023-12-01T06:55:15.727Z,0.302
2023-12-01T06:57:15.706Z,0.294
2023-12-01T06:58:15.837Z,0.345
2023-12-01T06:59:18.401Z,0.307
2023-12-01T07:00:14.886Z,0.323
2023-12-01T07:01:16.026Z,0.294
2023-12-01T07:02:16.208Z,0.291
2023-12-01T07:04:15.573Z,0.265
2023-12-01T07:05:15.162Z,0.283
2023-12-01T07:06:15.709Z,0.257
2023-12-01T07:07:15.373Z,0.278
2023-12-01T07:08:15.860Z,0.273
2023-12-01T07:09:15.220Z,0.243
2023-12-01T07:10:15.994Z,0.278
2023-12-01T07:11:15.793Z,0.267
2023-12-01T07:15:15.939Z,0.265
2023-12-01T07:16:15.722Z,0.254
2023-12-01T07:17:16.225Z,0.251
2023-12-01T07:18:15.220Z,0.249
2023-12-01T07:19:16.002Z,0.249
2023-12-01T07:20:15.765Z,0.281
2023-12-01T07:22:15.196Z,0.270
2023-12-01T07:23:17.791Z,0.251
2023-12-01T07:24:15.777Z,0.243
2023-12-01T07:25:15.789Z,0.251
2023-12-01T07:26:15.874Z,0.214
2023-12-01T07:27:15.822Z,0.219
2023-12-01T07:28:16.065Z,0.225
2023-12-01T07:29:15.727Z,0.222
2023-12-01T07:30:15.994Z,0.209
2023-12-01T07:31:16.642Z,0.187
2023-12-01T07:32:15.407Z,0.198
2023-12-01T07:33:15.054Z,0.225
2023-12-01T07:34:15.916Z,0.225
2023-12-01T07:35:15.724Z,0.227
2023-12-01T07:36:23.098Z,0.227
2023-12-01T07:38:15.613Z,0.243
2023-12-01T07:39:16.701Z,0.249
2023-12-01T07:40:15.816Z,0.270
2023-12-01T07:41:15.867Z,0.241
2023-12-01T07:42:15.894Z,0.275
2023-12-01T07:43:15.803Z,0.241
2023-12-01T07:44:16.183Z,0.265
2023-12-01T07:45:16.989Z,0.278
2023-12-01T07:46:16.203Z,0.289
2023-12-01T07:48:15.290Z,0.289
2023-12-01T07:49:19.728Z,0.313
2023-12-01T07:50:15.654Z,0.262
2023-12-01T07:52:15.660Z,0.305
2023-12-01T07:53:15.802Z,0.305
2023-12-01T07:54:15.739Z,0.289
2023-12-01T07:55:15.948Z,0.291
2023-12-01T07:56:15.153Z,0.313
2023-12-01T07:57:15.799Z,0.321
2023-12-01T07:58:16.250Z,0.323
2023-12-01T07:59:15.081Z,0.334
2023-12-01T08:00:16.654Z,0.345
2023-12-01T08:01:16.310Z,0.315
2023-12-01T08:03:15.579Z,0.326
2023-12-01T08:04:15.943Z,0.340
2023-12-01T08:05:16.551Z,0.364
2023-12-01T08:07:18.523Z,0.315
2023-12-01T08:08:15.696Z,0.326
2023-12-01T08:09:15.321Z,0.307
2023-12-01T08:10:17.549Z,0.278
2023-12-01T08:11:15.967Z,0.326
2023-12-01T08:12:15.985Z,0.310
2023-12-01T08:13:15.884Z,0.305
2023-12-01T08:15:15.724Z,0.307
2023-12-01T08:16:16.041Z,0.291
2023-12-01T08:17:15.561Z,0.294
2023-12-01T08:18:15.707Z,0.302
2023-12-01T08:19:16.005Z,0.318
2023-12-01T08:20:15.090Z,0.350
2023-12-01T08:21:18.164Z,0.353
2023-12-01T08:22:15.925Z,0.356
2023-12-01T08:24:15.912Z,0.398
2023-12-01T08:25:16.240Z,0.417
2023-12-01T08:26:14.970Z,0.412
2023-12-01T08:27:17.218Z,0.465
2023-12-01T08:28:15.809Z,0.497
2023-12-01T08:29:15.377Z,0.537
2023-12-01T08:30:26.317Z,0.556
2023-12-01T08:31:15.094Z,0.545
2023-12-01T08:32:16.329Z,0.583
2023-12-01T08:33:15.206Z,0.518
2023-12-01T08:34:26.840Z,0.513
2023-12-01T08:35:15.626Z,0.473
2023-12-01T08:36:20.676Z,0.505
2023-12-01T08:37:22.244Z,0.556
2023-12-01T08:39:15.294Z,0.596
2023-12-01T08:40:17.850Z,0.649
2023-12-01T08:41:15.634Z,0.641
2023-12-01T08:42:15.785Z,0.697
2023-12-01T08:43:15.416Z,0.721
2023-12-01T08:44:15.189Z,0.719
2023-12-01T08:45:16.082Z,0.636
2023-12-01T08:47:15.873Z,0.695
2023-12-01T08:49:15.912Z,0.761
2023-12-01T08:50:21.050Z,0.818
2023-12-01T08:51:16.326Z,0.823
2023-12-01T08:52:15.118Z,0.855
2023-12-01T08:53:15.908Z,0.882
2023-12-01T08:54:22.590Z,0.866
2023-12-01T08:55:16.572Z,0.852
2023-12-01T08:56:15.175Z,0.884
2023-12-01T08:57:15.818Z,0.914
2023-12-01T08:58:15.350Z,0.847
2023-12-01T08:59:15.032Z,0.884
2023-12-01T09:00:15.920Z,0.938
2023-12-01T09:01:15.882Z,0.930
2023-12-01T09:02:21.494Z,0.911
2023-12-01T09:04:16.441Z,0.927
2023-12-01T09:05:15.738Z,0.946
2023-12-01T09:06:16.010Z,0.930
2023-12-01T09:07:15.844Z,0.903
2023-12-01T09:08:15.968Z,0.924
2023-12-01T09:09:15.760Z,0.938
2023-12-01T09:11:15.125Z,0.930
2023-12-01T09:12:16.199Z,0.903
2023-12-01T09:13:17.405Z,0.908
2023-12-01T09:14:15.085Z,0.892
2023-12-01T09:15:15.778Z,0.906
2023-12-01T09:16:15.602Z,0.858
2023-12-01T09:17:15.645Z,0.834
2023-12-01T09:18:16.022Z,0.836
2023-12-01T09:19:16.153Z,0.836
2023-12-01T09:21:16.125Z,0.908
2023-12-01T09:22:16.082Z,0.954
2023-12-01T09:23:15.927Z,1.020
2023-12-01T09:24:15.810Z,0.906
2023-12-01T09:25:17.460Z,0.994
2023-12-01T09:26:15.734Z,0.972
2023-12-01T09:27:15.724Z,0.962
2023-12-01T09:28:15.771Z,0.844
2023-12-01T09:29:15.530Z,0.809
2023-12-01T09:30:15.729Z,0.743
2023-12-01T09:31:15.780Z,0.668
2023-12-01T09:32:15.746Z,0.663
2023-12-01T09:33:15.973Z,0.695
2023-12-01T09:36:16.059Z,0.761
2023-12-01T09:38:15.834Z,0.836
2023-12-01T09:39:15.588Z,0.740
2023-12-01T09:40:15.117Z,0.847
2023-12-01T09:41:15.217Z,0.839
2023-12-01T09:42:15.713Z,0.884
2023-12-01T09:43:15.919Z,0.871
2023-12-01T09:44:20.553Z,0.868
2023-12-01T09:47:15.811Z,0.871
2023-12-01T09:48:16.074Z,1.015
2023-12-01T09:49:15.832Z,1.018
2023-12-01T09:50:15.389Z,1.020
2023-12-01T09:51:15.457Z,1.117
2023-12-01T09:52:15.206Z,1.239
2023-12-01T09:53:15.896Z,1.287
2023-12-01T09:54:16.700Z,1.304
2023-12-01T09:56:15.438Z,1.328
2023-12-01T09:57:17.005Z,1.416
2023-12-01T09:58:15.797Z,1.392
2023-12-01T10:00:15.922Z,1.488
2023-12-01T10:02:16.112Z,1.547
2023-12-01T10:03:15.362Z,1.469
2023-12-01T10:04:15.836Z,1.429
2023-12-01T10:05:16.502Z,1.469
2023-12-01T10:06:15.782Z,1.565
2023-12-01T10:08:15.113Z,1.629
2023-12-01T10:09:16.132Z,1.589
2023-12-01T10:10:15.746Z,1.581
2023-12-01T10:11:15.532Z,1.533
2023-12-01T10:12:15.674Z,1.528
2023-12-01T10:13:18.394Z,1.501
2023-12-01T10:14:14.985Z,1.603
2023-12-01T10:15:15.785Z,1.520
2023-12-01T10:16:15.891Z,1.600
2023-12-01T10:17:15.999Z,1.592
2023-12-01T10:18:24.944Z,1.632
2023-12-01T10:21:15.952Z,1.624
2023-12-01T10:22:15.677Z,1.595
2023-12-01T10:23:15.388Z,1.608
2023-12-01T10:24:14.929Z,1.541
2023-12-01T10:25:15.463Z,1.496
2023-12-01T10:26:15.510Z,1.410
2023-12-01T10:27:15.995Z,1.229
2023-12-01T10:29:15.782Z,1.557
2023-12-01T10:30:16.134Z,1.597
2023-12-01T10:31:14.977Z,1.533
2023-12-01T10:32:15.761Z,1.442
2023-12-01T10:33:15.756Z,1.469
2023-12-01T10:34:15.726Z,1.464
2023-12-01T10:35:15.276Z,1.472
2023-12-01T10:36:16.307Z,1.402
2023-12-01T10:37:15.888Z,1.410
2023-12-01T10:39:15.586Z,1.370
2023-12-01T10:40:15.598Z,1.312
2023-12-01T10:41:15.693Z,1.293
2023-12-01T10:42:15.839Z,1.376
2023-12-01T10:43:15.833Z,1.277
2023-12-01T10:44:15.874Z,1.263
2023-12-01T10:45:15.648Z,1.202
2023-12-01T10:46:16.289Z,1.213
2023-12-01T10:47:17.629Z,1.250
2023-12-01T10:48:16.195Z,1.261
2023-12-01T10:50:15.869Z,1.229
2023-12-01T10:51:15.936Z,1.191
2023-12-01T10:53:15.187Z,1.293
2023-12-01T10:54:15.993Z,1.271
2023-12-01T10:56:15.874Z,1.392
2023-12-01T10:57:16.240Z,1.384
2023-12-01T10:58:15.021Z,1.392
2023-12-01T10:59:15.748Z,1.493
2023-12-01T11:00:15.552Z,1.482
2023-12-01T11:01:15.336Z,1.368
2023-12-01T11:02:15.842Z,1.402
2023-12-01T11:03:17.920Z,1.389
2023-12-01T11:04:15.492Z,1.429
2023-12-01T11:06:15.150Z,1.549
2023-12-01T11:07:15.531Z,1.619
2023-12-01T11:08:15.609Z,1.757
2023-12-01T11:09:15.794Z,1.723
2023-12-01T11:11:15.258Z,1.720
2023-12-01T11:12:15.329Z,1.709
2023-12-01T11:13:15.947Z,1.693
2023-12-01T11:14:15.156Z,1.725
2023-12-01T11:15:16.749Z,1.632
2023-12-01T11:16:15.705Z,1.595
2023-12-01T11:17:20.405Z,1.400
2023-12-01T11:19:15.735Z,1.365
2023-12-01T11:20:15.524Z,1.354
2023-12-01T11:21:15.389Z,1.469
2023-12-01T11:22:15.582Z,1.498
2023-12-01T11:23:16.768Z,1.346
2023-12-01T11:24:16.571Z,1.472
2023-12-01T11:27:16.088Z,1.469
2023-12-01T11:29:18.682Z,1.418
2023-12-01T11:32:16.353Z,1.207
2023-12-01T11:33:15.932Z,1.266
2023-12-01T11:34:15.821Z,1.239
2023-12-01T11:36:15.784Z,1.285
2023-12-01T11:37:15.843Z,1.287
2023-12-01T11:38:15.716Z,1.360
2023-12-01T11:39:16.088Z,1.242
2023-12-01T11:40:15.867Z,1.306
2023-12-01T11:41:15.929Z,1.213
2023-12-01T11:42:15.684Z,1.210
2023-12-01T11:43:37.809Z,1.175
2023-12-01T11:44:15.800Z,1.253
2023-12-01T11:45:16.404Z,1.223
2023-12-01T11:46:15.921Z,1.159
2023-12-01T11:47:18.554Z,1.197
2023-12-01T11:48:16.354Z,1.186
2023-12-01T11:49:16.796Z,1.237
2023-12-01T11:50:15.603Z,1.325
2023-12-01T11:51:15.737Z,1.239
2023-12-01T11:52:15.840Z,1.159
2023-12-01T11:53:16.036Z,1.085
2023-12-01T11:54:15.170Z,1.074
2023-12-01T11:55:16.153Z,1.066
2023-12-01T11:57:15.907Z,1.036
2023-12-01T11:58:16.201Z,1.114
2023-12-01T11:59:15.809Z,1.162
2023-12-01T12:00:15.916Z,1.044
2023-12-01T12:01:15.537Z,1.052
2023-12-01T12:02:15.524Z,1.162
2023-12-01T12:03:15.792Z,1.186
2023-12-01T12:04:15.924Z,1.263
2023-12-01T12:05:15.040Z,1.074
2023-12-01T12:06:15.151Z,1.186
2023-12-01T12:07:15.288Z,1.127
2023-12-01T12:08:15.845Z,1.245
2023-12-01T12:09:15.987Z,1.269
2023-12-01T12:10:16.033Z,1.255
2023-12-01T12:11:15.520Z,1.239
2023-12-01T12:12:16.322Z,1.266
2023-12-01T12:13:15.486Z,1.127
2023-12-01T12:14:15.670Z,1.127
2023-12-01T12:15:15.580Z,1.130
2023-12-01T12:16:15.958Z,1.103
2023-12-01T12:17:16.022Z,1.085
2023-12-01T12:18:16.591Z,1.093
2023-12-01T12:19:16.259Z,0.970
2023-12-01T12:20:20.672Z,0.996
2023-12-01T12:22:16.061Z,1.093
2023-12-01T12:23:15.911Z,1.015
2023-12-01T12:24:16.313Z,0.964
2023-12-01T12:26:15.301Z,0.983
2023-12-01T12:27:15.456Z,0.999
2023-12-01T12:28:15.511Z,0.988
2023-12-01T12:29:15.436Z,1.002
2023-12-01T12:30:15.692Z,1.052
2023-12-01T12:31:16.036Z,1.004
2023-12-01T12:32:16.383Z,1.085
2023-12-01T12:33:15.967Z,1.117
2023-12-01T12:34:17.366Z,1.149
2023-12-01T12:35:16.356Z,1.135
2023-12-01T12:36:16.011Z,1.087
2023-12-01T12:37:15.915Z,1.117
2023-12-01T12:38:16.015Z,1.141
2023-12-01T12:39:16.122Z,1.071
2023-12-01T12:40:14.970Z,1.034
2023-12-01T12:41:15.533Z,0.994
2023-12-01T12:42:15.161Z,1.055
2023-12-01T12:43:15.326Z,1.010
2023-12-01T12:44:15.921Z,1.002
2023-12-01T12:45:15.694Z,1.004
2023-12-01T12:46:15.725Z,1.020
2023-12-01T12:47:16.289Z,1.015
2023-12-01T12:48:16.050Z,1.036
2023-12-01T12:50:15.843Z,1.010
2023-12-01T12:51:16.004Z,1.085
2023-12-01T12:52:15.643Z,1.047
2023-12-01T12:53:15.150Z,1.010
2023-12-01T12:54:15.912Z,1.063
2023-12-01T12:55:15.644Z,0.986
2023-12-01T12:56:15.571Z,1.039
2023-12-01T12:57:15.376Z,1.047
2023-12-01T13:00:15.802Z,0.948
2023-12-01T13:03:15.984Z,0.994
2023-12-01T13:04:15.106Z,0.916
2023-12-01T13:05:14.990Z,0.962
2023-12-01T13:06:16.017Z,0.988
2023-12-01T13:07:16.085Z,0.962
2023-12-01T13:08:15.623Z,0.983
2023-12-01T13:09:15.393Z,0.986
2023-12-01T13:10:14.981Z,1.058
2023-12-01T13:11:15.573Z,0.994
2023-12-01T13:12:15.767Z,0.935
2023-12-01T13:14:16.046Z,0.919
2023-12-01T13:15:14.994Z,0.948
2023-12-01T13:16:15.886Z,0.932
2023-12-01T13:18:16.138Z,0.916
2023-12-01T13:19:16.375Z,0.858
2023-12-01T13:20:15.896Z,0.890
2023-12-01T13:21:16.356Z,0.892
2023-12-01T13:22:15.122Z,0.916
2023-12-01T13:23:15.709Z,0.935
2023-12-01T13:24:15.675Z,0.900
2023-12-01T13:27:15.623Z,0.946
2023-12-01T13:28:15.629Z,0.914
2023-12-01T13:29:15.720Z,0.911
2023-12-01T13:30:15.882Z,0.882
2023-12-01T13:31:15.944Z,0.898
2023-12-01T13:32:15.906Z,0.850
2023-12-01T13:33:16.179Z,0.844
2023-12-01T13:34:15.157Z,0.844
2023-12-01T13:35:16.170Z,0.842
2023-12-01T13:36:16.295Z,0.900
2023-12-01T13:37:15.136Z,0.807
2023-12-01T13:38:15.939Z,0.858
2023-12-01T13:39:15.760Z,0.793
2023-12-01T13:40:15.781Z,0.847
2023-12-01T13:42:15.650Z,0.890
2023-12-01T13:44:15.211Z,0.927
2023-12-01T13:45:20.399Z,0.882
2023-12-01T13:48:15.953Z,0.812
2023-12-01T13:50:15.436Z,0.796
2023-12-01T13:51:15.121Z,0.834
2023-12-01T13:52:15.853Z,0.839
2023-12-01T13:53:15.365Z,0.807
2023-12-01T13:54:16.187Z,0.769
2023-12-01T13:55:15.959Z,0.809
2023-12-01T13:56:20.560Z,0.777
2023-12-01T13:57:15.733Z,0.791
2023-12-01T13:58:16.077Z,0.831
2023-12-01T13:59:15.353Z,0.793
2023-12-01T14:00:15.281Z,0.788
2023-12-01T14:01:16.274Z,0.775
2023-12-01T14:02:15.829Z,0.751
2023-12-01T14:03:32.349Z,0.743
2023-12-01T14:04:15.648Z,0.735
2023-12-01T14:05:15.248Z,0.689
2023-12-01T14:06:16.567Z,0.716
2023-12-01T14:07:15.537Z,0.748
2023-12-01T14:08:15.429Z,0.732
2023-12-01T14:10:16.123Z,0.705
2023-12-01T14:11:15.772Z,0.695
2023-12-01T14:12:16.739Z,0.695
2023-12-01T14:13:15.831Z,0.705
2023-12-01T14:14:16.019Z,0.721
2023-12-01T14:15:15.803Z,0.697
2023-12-01T14:16:16.144Z,0.681
2023-12-01T14:17:15.221Z,0.636
2023-12-01T14:18:16.217Z,0.612
2023-12-01T14:19:15.270Z,0.607
2023-12-01T14:20:16.096Z,0.585
2023-12-01T14:21:15.711Z,0.534
2023-12-01T14:22:15.509Z,0.548
2023-12-01T14:25:15.882Z,0.481
2023-12-01T14:26:15.794Z,0.428
2023-12-01T14:27:16.025Z,0.417
2023-12-01T14:28:16.363Z,0.390
2023-12-01T14:29:15.020Z,0.329
2023-12-01T14:30:16.019Z,0.315
2023-12-01T14:32:24.872Z,0.289
2023-12-01T14:35:16.010Z,0.265
2023-12-01T14:36:15.182Z,0.275
2023-12-01T14:37:14.902Z,0.262
2023-12-01T14:38:15.638Z,0.211
2023-12-01T14:39:15.794Z,0.227
2023-12-01T14:40:16.856Z,0.169
2023-12-01T14:41:15.881Z,0.139
2023-12-01T14:42:16.109Z,0.185
2023-12-01T14:43:15.001Z,0.246
2023-12-01T14:44:15.634Z,0.185
2023-12-01T14:45:15.476Z,0.161
2023-12-01T14:46:16.792Z,0.155
2023-12-01T14:48:15.683Z,0.166
2023-12-01T14:49:15.590Z,0.163
2023-12-01T14:50:15.522Z,0.134
2023-12-01T14:51:15.219Z,0.123
2023-12-01T14:52:14.954Z,0.155
2023-12-01T14:53:15.689Z,0.118
2023-12-01T14:54:15.440Z,0.145
2023-12-01T14:55:15.084Z,0.131
2023-12-01T14:56:15.937Z,0.094
2023-12-01T14:57:15.642Z,0.171
2023-12-01T14:59:15.131Z,0.131
2023-12-01T15:00:16.348Z,0.105
2023-12-01T15:01:15.073Z,0.054
2023-12-01T15:02:16.247Z,0.094
2023-12-01T15:03:15.483Z,0.129